Offbeat — 2JMI2 — position and weather

sailwx.info

Track history (hours):
 
Tides and Currents Weather Stations Pressure Air Temp Water Temp Dewpoint Dewpoint Depression Visibility Wind Speed Wind Dir Waves Ship Positions

Offbeat

Last reported at 2017-Nov-18 17:00 UTC. Time now 2017-Nov-19 03:05 UTC.
Position N 50°48' W 001°07'.

Length 14 m.

Type: Sailing vessel. MMSI: 235117123.

Date/timePositionNaut miles runAvg speedWind from/ knotsBaromVisibWave heightAir tempDewpointWater temp
2017-Nov-18 17:00N 50°48' W 001°07'0 0.0
2017-Nov-18 16:30N 50°48' W 001°07'0 0.0
2017-Nov-18 16:00N 50°48' W 001°07'0 0.0
2017-Nov-18 15:17N 50°48' W 001°07'0 0.0
2017-Nov-18 14:59N 50°48' W 001°07'0 0.5
2017-Nov-18 14:30N 50°47' W 001°07'2 3.7
2017-Nov-18 14:00N 50°46' W 001°08'3 5.8
2017-Nov-18 13:30N 50°45' W 001°12'3 5.6
2017-Nov-18 13:00N 50°46' W 001°16'2 5.0
2017-Nov-18 12:30N 50°48' W 001°17'3 5.8
2017-Nov-18 12:00N 50°51' W 001°19'0 0.9
2017-Nov-18 11:28N 50°52' W 001°19'0 0.0
2017-Nov-18 10:58N 50°52' W 001°19'0 0.0
2017-Nov-18 10:28N 50°52' W 001°19'  
Track history (hours):
 
Tides and Currents Weather Stations Pressure Air Temp Water Temp Dewpoint Dewpoint Depression Visibility Wind Speed Wind Dir Waves Ship Positions

Offbeat

Last reported at 2017-Nov-18 17:00 UTC. Time now 2017-Nov-19 03:05 UTC.
Position N 50°48' W 001°07'.

Length 14 m.

Type: Sailing vessel. MMSI: 235117123.

Date/timePositionNaut miles runAvg speedWind from/ knotsBaromVisibWave heightAir tempDewpointWater temp
2017-Nov-18 17:00N 50°48' W 001°07'0 0.0
2017-Nov-18 16:30N 50°48' W 001°07'0 0.0
2017-Nov-18 16:00N 50°48' W 001°07'0 0.0
2017-Nov-18 15:17N 50°48' W 001°07'0 0.0
2017-Nov-18 14:59N 50°48' W 001°07'0 0.5
2017-Nov-18 14:30N 50°47' W 001°07'2 3.7
2017-Nov-18 14:00N 50°46' W 001°08'3 5.8
2017-Nov-18 13:30N 50°45' W 001°12'3 5.6
2017-Nov-18 13:00N 50°46' W 001°16'2 5.0
2017-Nov-18 12:30N 50°48' W 001°17'3 5.8
2017-Nov-18 12:00N 50°51' W 001°19'0 0.9
2017-Nov-18 11:28N 50°52' W 001°19'0 0.0
2017-Nov-18 10:58N 50°52' W 001°19'0 0.0
2017-Nov-18 10:28N 50°52' W 001°19'  

Dump ship's entire track history